Bookmark and Share
Track history (hours):
 

Obelix

Last reported at 2014-Apr-20 06:32 UTC. Time now 2014-Apr-20 16:04 UTC.
Position N 34°41' E 134°48'.

Length 74 m; draft 4.5 m.

Type: Ship (hazmat cat D). MMSI: 432528000.

NotesDate/timePositionNaut miles runAvg speedWind from/ knotsBaromVisibWave heightAir tempDewpointWater temp
2014-Apr-20 06:32N 34°41' E 134°48'1210.4
2014-Apr-20 05:24N 34°37' E 135°01'1011.9
2014-Apr-20 04:33N 34°35' E 135°13'1010.2
2014-Apr-20 03:33N 34°33' E 135°25'0 0.0
2014-Apr-20 02:33N 34°33' E 135°25'0 0.0
2014-Apr-20 01:15N 34°33' E 135°25'0 0.0
2014-Apr-20 00:33N 34°33' E 135°25'0 0.0
2014-Apr-19 23:33N 34°33' E 135°25'1 1.2
2014-Apr-19 22:33N 34°33' E 135°24'4 3.9
2014-Apr-19 21:24N 34°32' E 135°19'0 0.0
2014-Apr-19 20:24N 34°32' E 135°19'0 0.0
2014-Apr-19 19:30N 34°32' E 135°19'0 0.0
2014-Apr-19 18:30N 34°32' E 135°19'0 0.0
2014-Apr-19 17:24N 34°32' E 135°19'0 0.0
2014-Apr-19 16:30N 34°32' E 135°19'0 0.0
2014-Apr-19 15:30N 34°32' E 135°19'0 0.0
2014-Apr-19 14:30N 34°32' E 135°19'0 0.0
2014-Apr-19 13:30N 34°32' E 135°19'0 0.0
2014-Apr-19 12:30N 34°32' E 135°19'0 0.0
2014-Apr-19 11:24N 34°32' E 135°19'0 0.0
2014-Apr-19 10:24N 34°32' E 135°19'0 0.0
2014-Apr-19 09:30N 34°32' E 135°19'0 0.0
2014-Apr-19 08:30N 34°32' E 135°19'7 7.9
2014-Apr-19 07:33N 34°34' E 135°11'1514.7
2014-Apr-19 06:34N 34°38' E 134°53'6 0.3
2014-Apr-18 12:26N 34°41' E 134°48'1213.4
2014-Apr-18 11:33N 34°37' E 135°02'1211.6
2014-Apr-18 10:31N 34°25' E 135°03'1212.4
2014-Apr-18 09:33N 34°13' E 134°59'1211.6
2014-Apr-18 08:32N 34°02' E 134°60'21210.0
2014-Apr-17 11:27N 34°48' E 139°10'1111.9
2014-Apr-17 10:30N 34°55' E 139°21'1111.9
2014-Apr-17 09:33N 35°01' E 139°32'1212.1
2014-Apr-17 08:33N 35°09' E 139°44'1010.4
2014-Apr-17 07:33N 35°19' E 139°43'1010.1
2014-Apr-17 06:33N 35°28' E 139°49'10 9.9
2014-Apr-17 05:33N 35°29' E 140°01'0 0.0
2014-Apr-17 04:33N 35°29' E 140°01'0 0.0
2014-Apr-17 03:33N 35°29' E 140°01'0 0.0
2014-Apr-17 02:33N 35°29' E 140°01'0 0.0
2014-Apr-17 01:33N 35°29' E 140°01'0 0.0
2014-Apr-17 00:33N 35°29' E 140°01'0 0.0
2014-Apr-16 23:33N 35°29' E 140°01'1 0.6
2014-Apr-16 22:33N 35°29' E 140°00'5 4.2
2014-Apr-16 21:28N 35°28' E 139°55'0 0.0
2014-Apr-16 20:28N 35°28' E 139°55'0 0.0
2014-Apr-16 19:31N 35°28' E 139°55'0 0.0
2014-Apr-16 18:28N 35°28' E 139°55'0 0.1
2014-Apr-16 17:31N 35°28' E 139°55'0 0.1
2014-Apr-16 16:28N 35°29' E 139°55'0 0.0
2014-Apr-16 15:28N 35°28' E 139°55'0 0.0
2014-Apr-16 14:28N 35°28' E 139°55'0 0.0
2014-Apr-16 13:28N 35°28' E 139°55'0 0.0
2014-Apr-16 12:19N 35°28' E 139°55'0 0.0
2014-Apr-16 11:31N 35°28' E 139°55'0 0.0
2014-Apr-16 10:28N 35°28' E 139°55'0 0.0
2014-Apr-16 09:22N 35°29' E 139°55'0 0.0
2014-Apr-16 08:31N 35°29' E 139°55'0 0.0
2014-Apr-16 07:31N 35°29' E 139°55'0 0.0
2014-Apr-16 06:31N 35°29' E 139°55'0 0.0
2014-Apr-16 05:22N 35°29' E 139°55'0 0.0
2014-Apr-16 04:31N 35°29' E 139°55'0 0.0
2014-Apr-16 03:28N 35°29' E 139°55'0 0.1
2014-Apr-16 02:31N 35°28' E 139°55'0 0.0
2014-Apr-16 01:22N 35°28' E 139°55'0 0.0
2014-Apr-16 00:31N 35°28' E 139°55'0 0.0
2014-Apr-15 23:31N 35°28' E 139°55'0 0.0
2014-Apr-15 22:31N 35°28' E 139°55'0 0.0
2014-Apr-15 21:31N 35°28' E 139°55'0 0.0
2014-Apr-15 20:25N 35°28' E 139°55'0 0.1
2014-Apr-15 19:31N 35°28' E 139°55'0 0.0
2014-Apr-15 18:19N 35°29' E 139°55'0 0.0
2014-Apr-15 17:31N 35°29' E 139°55'0 0.0
2014-Apr-15 16:31N 35°29' E 139°55'0 0.0
2014-Apr-15 15:31N 35°29' E 139°55'0 0.0
2014-Apr-15 14:31N 35°29' E 139°55'0 0.0
2014-Apr-15 11:31N 35°29' E 139°55'0 0.0
2014-Apr-15 09:31N 35°29' E 139°55'0 0.0
2014-Apr-15 08:31N 35°29' E 139°55'0 0.0
2014-Apr-15 07:31N 35°29' E 139°55'0 0.0
2014-Apr-15 05:31N 35°29' E 139°55'14 7.1
2014-Apr-15 03:34N 35°17' E 139°46'1212.3
2014-Apr-15 02:34N 35°05' E 139°43'1313.0
2014-Apr-15 01:32N 34°56' E 139°30'  
2014-Apr-10 06:33N 35°07' E 139°42'  

Dump ship's entire track history

sailing weather and tide predictions

Obelix — 7JAX — position and weather